createdAt,value
2018-02-12T00:00:38.530Z,25.99
2018-02-12T00:01:51.227Z,25.98
2018-02-12T00:03:04.400Z,25.97
2018-02-12T00:04:17.635Z,26.06
2018-02-12T00:05:30.759Z,26.06
2018-02-12T00:06:43.961Z,25.99
2018-02-12T00:07:57.156Z,26.05
2018-02-12T00:09:10.420Z,26.06
2018-02-12T00:10:23.550Z,26.01
2018-02-12T00:11:36.705Z,25.99
2018-02-12T00:12:49.931Z,26.07
2018-02-12T00:14:03.137Z,25.99
2018-02-12T00:15:16.368Z,26.01
2018-02-12T00:16:29.534Z,25.94
2018-02-12T00:17:42.627Z,25.85
2018-02-12T00:18:55.893Z,25.91
2018-02-12T00:20:09.128Z,25.88
2018-02-12T00:21:22.305Z,25.9
2018-02-12T00:22:35.445Z,25.88
2018-02-12T00:23:48.674Z,25.77
2018-02-12T00:25:01.861Z,25.85
2018-02-12T00:26:15.008Z,25.92
2018-02-12T00:27:28.146Z,25.92
2018-02-12T00:28:41.397Z,25.94
2018-02-12T00:29:54.611Z,25.83
2018-02-12T00:31:07.322Z,25.88
2018-02-12T00:32:20.537Z,25.85
2018-02-12T00:33:33.727Z,25.88
2018-02-12T00:34:46.234Z,25.87
2018-02-12T00:35:59.359Z,25.77
2018-02-12T00:37:12.472Z,25.82
2018-02-12T00:38:25.604Z,25.87
2018-02-12T00:39:38.797Z,25.85
2018-02-12T00:40:52.013Z,25.76
2018-02-12T00:42:05.225Z,25.67
2018-02-12T00:43:18.385Z,25.73
2018-02-12T00:44:31.626Z,25.73
2018-02-12T00:45:44.822Z,25.75
2018-02-12T00:46:58.049Z,25.7
2018-02-12T00:48:11.215Z,25.69
2018-02-12T00:49:24.458Z,25.73
2018-02-12T00:50:37.626Z,25.75
2018-02-12T00:51:50.818Z,25.65
2018-02-12T00:53:04.045Z,25.73
2018-02-12T00:54:17.326Z,25.75
2018-02-12T00:55:30.524Z,25.72
2018-02-12T00:56:43.682Z,25.7
2018-02-12T00:57:56.987Z,25.77
2018-02-12T00:59:10.299Z,25.64
2018-02-12T01:00:23.509Z,25.7
2018-02-12T01:01:36.630Z,25.7
2018-02-12T01:02:49.783Z,25.65
2018-02-12T01:04:02.710Z,25.64
2018-02-12T01:05:15.924Z,25.61
2018-02-12T01:06:28.671Z,25.6
2018-02-12T01:07:41.897Z,25.57
2018-02-12T01:08:54.810Z,25.61
2018-02-12T01:10:08.081Z,25.61
2018-02-12T01:11:21.247Z,25.57
2018-02-12T01:12:34.418Z,25.5
2018-02-12T01:13:47.545Z,25.47
2018-02-12T01:15:00.712Z,25.45
2018-02-12T01:16:12.958Z,25.46
2018-02-12T01:17:26.129Z,25.45
2018-02-12T01:18:39.238Z,25.54
2018-02-12T01:19:52.452Z,25.55
2018-02-12T01:21:05.646Z,25.51
2018-02-12T01:22:18.765Z,25.47
2018-02-12T01:23:31.392Z,25.42
2018-02-12T01:24:44.179Z,25.5
2018-02-12T01:25:57.381Z,25.43
2018-02-12T01:27:10.556Z,25.51
2018-02-12T01:28:23.745Z,25.54
2018-02-12T01:29:36.932Z,25.52
2018-02-12T01:30:50.172Z,25.35
2018-02-12T01:32:03.347Z,25.43
2018-02-12T01:33:16.546Z,25.39
2018-02-12T01:34:29.755Z,25.39
2018-02-12T01:35:42.936Z,25.35
2018-02-12T01:36:56.108Z,25.33
2018-02-12T01:38:09.311Z,25.3
2018-02-12T01:39:22.505Z,25.39
2018-02-12T01:40:35.716Z,25.28
2018-02-12T01:41:48.667Z,25.39
2018-02-12T01:43:01.829Z,25.27
2018-02-12T01:44:15.009Z,25.42
2018-02-12T01:45:28.234Z,25.27
2018-02-12T01:46:41.399Z,25.3
2018-02-12T01:47:54.557Z,25.3
2018-02-12T01:49:07.810Z,25.39
2018-02-12T01:50:21.074Z,25.28
2018-02-12T01:51:34.244Z,25.28
2018-02-12T01:52:47.468Z,25.3
2018-02-12T01:54:00.431Z,25.24
2018-02-12T01:55:13.579Z,25.38
2018-02-12T01:56:26.706Z,25.25
2018-02-12T01:57:39.898Z,25.27
2018-02-12T01:58:52.766Z,25.4
2018-02-12T02:00:05.988Z,25.27
2018-02-12T02:01:19.156Z,25.28
2018-02-12T02:02:32.355Z,25.28
2018-02-12T02:03:45.660Z,25.24
2018-02-12T02:04:58.844Z,25.32
2018-02-12T02:06:11.981Z,25.3
2018-02-12T02:07:25.208Z,25.28
2018-02-12T02:08:38.410Z,25.38
2018-02-12T02:09:51.586Z,25.28
2018-02-12T02:11:04.770Z,25.28
2018-02-12T02:12:17.719Z,25.17
2018-02-12T02:13:30.984Z,25.2
2018-02-12T02:14:43.655Z,25.23
2018-02-12T02:15:56.760Z,25.18
2018-02-12T02:17:09.989Z,25.15
2018-02-12T02:18:23.169Z,25.17
2018-02-12T02:19:36.375Z,25.25
2018-02-12T02:20:49.408Z,25.21
2018-02-12T02:22:02.559Z,25.14
2018-02-12T02:23:15.706Z,25.15
2018-02-12T02:24:28.639Z,25.15
2018-02-12T02:25:41.795Z,25.18
2018-02-12T02:26:55.033Z,25.2
2018-02-12T02:28:08.150Z,25.1
2018-02-12T02:29:21.324Z,25.03
2018-02-12T02:30:34.478Z,25.02
2018-02-12T02:31:47.680Z,25.06
2018-02-12T02:33:00.834Z,25.03
2018-02-12T02:34:13.994Z,25.02
2018-02-12T02:35:26.965Z,24.98
2018-02-12T02:36:39.905Z,24.91
2018-02-12T02:37:52.886Z,24.88
2018-02-12T02:39:06.134Z,24.85
2018-02-12T02:40:19.341Z,24.9
2018-02-12T02:41:32.479Z,24.9
2018-02-12T02:42:45.685Z,24.85
2018-02-12T02:43:58.928Z,24.8
2018-02-12T02:45:12.139Z,24.83
2018-02-12T02:46:25.431Z,24.84
2018-02-12T02:47:38.630Z,24.91
2018-02-12T02:48:51.788Z,24.9
2018-02-12T02:50:04.990Z,24.88
2018-02-12T02:51:18.186Z,24.8
2018-02-12T02:52:31.065Z,24.9
2018-02-12T02:53:44.309Z,24.68
2018-02-12T02:54:57.505Z,24.85
2018-02-12T02:56:10.790Z,24.81
2018-02-12T02:57:23.982Z,24.69
2018-02-12T02:58:37.179Z,24.81
2018-02-12T02:59:49.911Z,24.73
2018-02-12T03:01:03.059Z,24.8
2018-02-12T03:02:16.261Z,24.73
2018-02-12T03:03:29.452Z,24.69
2018-02-12T03:04:42.658Z,24.76
2018-02-12T03:05:55.835Z,24.68
2018-02-12T03:07:08.999Z,24.67
2018-02-12T03:08:22.183Z,24.71
2018-02-12T03:09:34.912Z,24.57
2018-02-12T03:10:48.125Z,24.58
2018-02-12T03:12:01.279Z,24.52
2018-02-12T03:13:14.432Z,24.53
2018-02-12T03:14:27.354Z,24.39
2018-02-12T03:15:40.589Z,24.43
2018-02-12T03:16:53.814Z,24.42
2018-02-12T03:18:06.929Z,24.27
2018-02-12T03:19:20.052Z,24.35
2018-02-12T03:20:33.313Z,24.35
2018-02-12T03:21:46.279Z,24.4
2018-02-12T03:22:59.380Z,24.43
2018-02-12T03:24:12.548Z,24.32
2018-02-12T03:25:25.449Z,24.27
2018-02-12T03:26:38.641Z,24.32
2018-02-12T03:27:51.342Z,24.4
2018-02-12T03:29:04.515Z,24.3
2018-02-12T03:30:17.241Z,24.27
2018-02-12T03:31:30.512Z,24.28
2018-02-12T03:32:43.724Z,24.31
2018-02-12T03:33:56.997Z,24.25
2018-02-12T03:35:10.169Z,24.32
2018-02-12T03:36:23.357Z,24.31
2018-02-12T03:37:36.561Z,24.21
2018-02-12T03:38:49.239Z,24.06
2018-02-12T03:40:02.202Z,24.08
2018-02-12T03:41:15.516Z,24.25
2018-02-12T03:42:28.709Z,24.16
2018-02-12T03:43:41.944Z,24.2
2018-02-12T03:44:55.168Z,24.18
2018-02-12T03:46:08.370Z,24.18
2018-02-12T03:47:21.517Z,24.21
2018-02-12T03:48:34.705Z,24.24
2018-02-12T03:49:47.898Z,24.21
2018-02-12T03:51:01.057Z,24.27
2018-02-12T03:52:14.267Z,24.22
2018-02-12T03:53:27.484Z,24.21
2018-02-12T03:54:40.640Z,24.2
2018-02-12T03:55:53.795Z,24.25
2018-02-12T03:57:07.034Z,24.18
2018-02-12T03:58:20.228Z,24.24
2018-02-12T03:59:33.369Z,24.2
2018-02-12T04:00:46.576Z,24.21
2018-02-12T04:01:59.738Z,24.18
2018-02-12T04:03:12.912Z,24.25
2018-02-12T04:04:26.112Z,24.2
2018-02-12T04:05:39.137Z,24.18
2018-02-12T04:06:52.303Z,24.15
2018-02-12T04:08:05.424Z,24.18
2018-02-12T04:09:18.616Z,24.02
2018-02-12T04:10:31.836Z,24.08
2018-02-12T04:11:45.082Z,24.13
2018-02-12T04:12:58.240Z,24.08
2018-02-12T04:14:11.356Z,24.1
2018-02-12T04:15:24.485Z,23.98
2018-02-12T04:16:37.687Z,24.05
2018-02-12T04:17:50.945Z,23.98
2018-02-12T04:19:04.176Z,24.02
2018-02-12T04:20:17.361Z,23.93
2018-02-12T04:21:30.542Z,24.05
2018-02-12T04:22:43.741Z,23.87
2018-02-12T04:23:56.675Z,23.97
2018-02-12T04:25:09.917Z,24
2018-02-12T04:26:23.063Z,23.95
2018-02-12T04:27:36.299Z,24.02
2018-02-12T04:28:49.435Z,23.95
2018-02-12T04:30:02.637Z,23.87
2018-02-12T04:31:15.819Z,23.93
2018-02-12T04:32:29.036Z,23.95
2018-02-12T04:33:42.206Z,23.87
2018-02-12T04:34:55.363Z,23.76
2018-02-12T04:36:08.566Z,23.73
2018-02-12T04:37:21.759Z,23.84
2018-02-12T04:38:34.979Z,23.78
2018-02-12T04:39:47.944Z,23.87
2018-02-12T04:41:01.155Z,23.76
2018-02-12T04:42:14.395Z,23.88
2018-02-12T04:43:27.616Z,23.9
2018-02-12T04:44:40.582Z,23.94
2018-02-12T04:45:53.748Z,23.9
2018-02-12T04:47:07.078Z,23.88
2018-02-12T04:48:20.368Z,23.88
2018-02-12T04:49:33.539Z,23.97
2018-02-12T04:50:46.542Z,23.91
2018-02-12T04:51:59.752Z,23.87
2018-02-12T04:53:12.948Z,23.98
2018-02-12T04:54:26.066Z,23.88
2018-02-12T04:55:39.243Z,23.95
2018-02-12T04:56:52.403Z,23.91
2018-02-12T04:58:05.648Z,23.83
2018-02-12T04:59:18.802Z,23.84
2018-02-12T05:00:32.099Z,23.72
2018-02-12T05:01:45.292Z,23.79
2018-02-12T05:02:58.228Z,23.87
2018-02-12T05:04:11.188Z,23.8
2018-02-12T05:05:24.381Z,23.93
2018-02-12T05:06:37.331Z,23.76
2018-02-12T05:07:50.455Z,23.93
2018-02-12T05:09:03.648Z,23.78
2018-02-12T05:10:16.881Z,23.8
2018-02-12T05:11:29.978Z,23.79
2018-02-12T05:12:43.045Z,23.87
2018-02-12T05:13:56.253Z,23.84
2018-02-12T05:15:09.399Z,23.84
2018-02-12T05:16:22.626Z,23.85
2018-02-12T05:17:35.384Z,23.83
2018-02-12T05:18:48.538Z,23.85
2018-02-12T05:20:01.700Z,23.85
2018-02-12T05:21:14.910Z,23.93
2018-02-12T05:22:28.033Z,23.88
2018-02-12T05:23:41.160Z,23.93
2018-02-12T05:24:54.340Z,23.93
2018-02-12T05:26:07.488Z,23.91
2018-02-12T05:27:20.591Z,23.87
2018-02-12T05:28:33.736Z,23.8
2018-02-12T05:29:46.919Z,23.85
2018-02-12T05:31:00.117Z,23.76
2018-02-12T05:32:13.250Z,23.72
2018-02-12T05:33:26.453Z,23.78
2018-02-12T05:34:39.676Z,23.83
2018-02-12T05:35:52.883Z,23.84
2018-02-12T05:37:06.094Z,23.8
2018-02-12T05:38:19.345Z,23.91
2018-02-12T05:39:32.612Z,23.8
2018-02-12T05:40:45.876Z,23.88
2018-02-12T05:41:59.111Z,23.84
2018-02-12T05:43:12.323Z,23.9
2018-02-12T05:44:25.463Z,23.87
2018-02-12T05:45:38.643Z,23.83
2018-02-12T05:46:51.847Z,23.69
2018-02-12T05:48:05.031Z,23.66
2018-02-12T05:49:18.147Z,23.76
2018-02-12T05:50:31.316Z,23.66
2018-02-12T05:51:44.525Z,23.58
2018-02-12T05:52:57.600Z,23.63
2018-02-12T05:54:10.755Z,23.68
2018-02-12T05:55:23.946Z,23.72
2018-02-12T05:56:37.223Z,23.68
2018-02-12T05:57:50.426Z,23.61
2018-02-12T05:59:03.573Z,23.57
2018-02-12T06:00:16.766Z,23.51
2018-02-12T06:01:29.957Z,23.61
2018-02-12T06:02:42.936Z,23.48
2018-02-12T06:03:56.112Z,23.54
2018-02-12T06:05:09.250Z,23.57
2018-02-12T06:06:22.446Z,23.5
2018-02-12T06:07:35.469Z,23.6
2018-02-12T06:08:48.751Z,23.54
2018-02-12T06:10:01.868Z,23.58
2018-02-12T06:11:15.126Z,23.6
2018-02-12T06:12:27.821Z,23.65
2018-02-12T06:13:41.031Z,23.63
2018-02-12T06:14:54.177Z,23.7
2018-02-12T06:16:07.307Z,23.7
2018-02-12T06:17:20.473Z,23.69
2018-02-12T06:18:33.366Z,23.69
2018-02-12T06:19:46.538Z,23.72
2018-02-12T06:20:59.772Z,23.76
2018-02-12T06:22:12.966Z,23.75
2018-02-12T06:23:26.109Z,23.78
2018-02-12T06:24:39.242Z,23.73
2018-02-12T06:25:52.386Z,23.73
2018-02-12T06:27:05.104Z,23.8
2018-02-12T06:28:18.318Z,23.83
2018-02-12T06:29:31.513Z,23.76
2018-02-12T06:30:44.354Z,23.8
2018-02-12T06:31:57.582Z,23.68
2018-02-12T06:33:10.730Z,23.7
2018-02-12T06:34:23.867Z,23.66
2018-02-12T06:35:37.090Z,23.73
2018-02-12T06:36:50.248Z,23.69
2018-02-12T06:38:03.477Z,23.73
2018-02-12T06:39:16.785Z,23.75
2018-02-12T06:40:29.922Z,23.75
2018-02-12T06:41:42.696Z,23.75
2018-02-12T06:42:55.913Z,23.8
2018-02-12T06:44:09.117Z,23.7
2018-02-12T06:45:22.353Z,23.69
2018-02-12T06:46:35.321Z,23.7
2018-02-12T06:47:48.159Z,23.79
2018-02-12T06:49:01.279Z,23.83
2018-02-12T06:50:14.483Z,23.85
2018-02-12T06:51:27.662Z,23.84
2018-02-12T06:52:40.826Z,23.8
2018-02-12T06:53:54.075Z,23.8
2018-02-12T06:55:06.763Z,23.8
2018-02-12T06:56:19.990Z,23.79
2018-02-12T06:57:33.241Z,23.76
2018-02-12T06:58:46.479Z,23.88
2018-02-12T06:59:59.676Z,23.85
2018-02-12T07:01:12.922Z,23.79
2018-02-12T07:02:25.845Z,23.83
2018-02-12T07:03:39.100Z,23.84
2018-02-12T07:04:52.404Z,23.76
2018-02-12T07:06:05.601Z,23.73
2018-02-12T07:07:18.783Z,23.79
2018-02-12T07:08:32.027Z,23.72
2018-02-12T07:09:45.271Z,23.72
2018-02-12T07:10:58.495Z,23.7
2018-02-12T07:12:11.713Z,23.75
2018-02-12T07:13:24.966Z,23.7
2018-02-12T07:14:38.202Z,23.66
2018-02-12T07:15:51.400Z,23.72
2018-02-12T07:17:04.536Z,23.69
2018-02-12T07:18:17.645Z,23.65
2018-02-12T07:19:30.805Z,23.7
2018-02-12T07:20:43.939Z,23.7
2018-02-12T07:21:56.675Z,23.7
2018-02-12T07:23:09.462Z,23.68
2018-02-12T07:24:22.655Z,23.61
2018-02-12T07:25:35.605Z,23.61
2018-02-12T07:26:48.738Z,23.63
2018-02-12T07:28:01.859Z,23.57
2018-02-12T07:29:15.113Z,23.6
2018-02-12T07:30:28.220Z,23.57
2018-02-12T07:31:41.396Z,23.55
2018-02-12T07:32:54.645Z,23.51
2018-02-12T07:34:07.780Z,23.54
2018-02-12T07:35:21.039Z,23.5
2018-02-12T07:36:34.231Z,23.42
2018-02-12T07:37:47.408Z,23.53
2018-02-12T07:39:00.566Z,23.4
2018-02-12T07:40:13.715Z,23.35
2018-02-12T07:41:26.936Z,23.31
2018-02-12T07:42:39.701Z,23.23
2018-02-12T07:43:52.894Z,23.2
2018-02-12T07:45:06.134Z,23.15
2018-02-12T07:46:19.256Z,23.19
2018-02-12T07:47:32.520Z,23.13
2018-02-12T07:48:45.754Z,23.13
2018-02-12T07:49:58.959Z,23.17
2018-02-12T07:51:12.180Z,23.09
2018-02-12T07:52:25.393Z,23.07
2018-02-12T07:53:38.554Z,23.09
2018-02-12T07:54:51.760Z,23.02
2018-02-12T07:56:04.952Z,23.01
2018-02-12T07:57:18.106Z,23
2018-02-12T07:58:31.294Z,22.91
2018-02-12T07:59:44.480Z,22.95
2018-02-12T08:00:57.741Z,22.98
2018-02-12T08:02:10.978Z,22.92
2018-02-12T08:03:24.239Z,22.9
2018-02-12T08:04:37.433Z,22.92
2018-02-12T08:05:50.694Z,22.82
2018-02-12T08:07:03.913Z,22.83
2018-02-12T08:08:17.085Z,22.8
2018-02-12T08:09:30.231Z,22.7
2018-02-12T08:10:43.442Z,22.7
2018-02-12T08:11:56.418Z,22.65
2018-02-12T08:13:09.626Z,22.62
2018-02-12T08:14:22.300Z,22.64
2018-02-12T08:15:35.498Z,22.65
2018-02-12T08:16:48.462Z,22.61
2018-02-12T08:18:01.618Z,22.75
2018-02-12T08:19:14.733Z,22.7
2018-02-12T08:20:27.920Z,22.72
2018-02-12T08:21:41.054Z,22.73
2018-02-12T08:22:54.193Z,22.77
2018-02-12T08:24:06.360Z,22.76
2018-02-12T08:25:19.478Z,22.73
2018-02-12T08:26:32.408Z,22.75
2018-02-12T08:27:45.645Z,22.79
2018-02-12T08:28:58.880Z,22.76
2018-02-12T08:30:12.083Z,22.76
2018-02-12T08:31:25.323Z,22.77
2018-02-12T08:32:38.566Z,22.67
2018-02-12T08:33:51.293Z,22.72
2018-02-12T08:35:04.474Z,22.61
2018-02-12T08:36:17.582Z,22.62
2018-02-12T08:37:30.719Z,22.67
2018-02-12T08:38:43.899Z,22.64
2018-02-12T08:39:56.878Z,22.68
2018-02-12T08:41:10.095Z,22.61
2018-02-12T08:42:23.344Z,22.62
2018-02-12T08:43:36.362Z,22.64
2018-02-12T08:44:49.277Z,22.64
2018-02-12T08:46:02.480Z,22.64
2018-02-12T08:47:15.690Z,22.7
2018-02-12T08:48:28.869Z,22.76
2018-02-12T08:49:42.033Z,22.73
2018-02-12T08:50:55.278Z,22.68
2018-02-12T08:52:08.223Z,22.76
2018-02-12T08:53:21.445Z,22.65
2018-02-12T08:54:34.602Z,22.79
2018-02-12T08:55:47.834Z,22.77
2018-02-12T08:57:01.074Z,22.7
2018-02-12T08:58:14.270Z,22.68
2018-02-12T08:59:27.401Z,22.76
2018-02-12T09:00:40.629Z,22.76
2018-02-12T09:01:53.832Z,22.75
2018-02-12T09:03:07.032Z,22.77
2018-02-12T09:04:20.173Z,22.75
2018-02-12T09:05:33.359Z,22.73
2018-02-12T09:06:46.510Z,22.82
2018-02-12T09:07:59.673Z,22.65
2018-02-12T09:09:12.903Z,22.77
2018-02-12T09:10:26.031Z,22.76
2018-02-12T09:11:39.232Z,22.7
2018-02-12T09:12:52.391Z,22.73
2018-02-12T09:14:05.582Z,22.75
2018-02-12T09:15:18.843Z,22.65
2018-02-12T09:16:31.920Z,22.7
2018-02-12T09:17:45.105Z,22.79
2018-02-12T09:18:58.247Z,22.7
2018-02-12T09:20:11.434Z,22.73
2018-02-12T09:21:24.108Z,22.67
2018-02-12T09:22:37.393Z,22.64
2018-02-12T09:23:50.634Z,22.65
2018-02-12T09:25:03.792Z,22.65
2018-02-12T09:26:17.002Z,22.64
2018-02-12T09:27:30.210Z,22.6
2018-02-12T09:28:43.395Z,22.61
2018-02-12T09:29:56.631Z,22.55
2018-02-12T09:31:09.794Z,22.62
2018-02-12T09:32:23.044Z,22.62
2018-02-12T09:33:36.180Z,22.6
2018-02-12T09:34:49.381Z,22.58
2018-02-12T09:36:02.397Z,22.68
2018-02-12T09:37:15.583Z,22.67
2018-02-12T09:38:28.692Z,22.64
2018-02-12T09:39:41.826Z,22.6
2018-02-12T09:40:55.010Z,22.7
2018-02-12T09:42:08.195Z,22.61
2018-02-12T09:43:21.452Z,22.65
2018-02-12T09:44:34.612Z,22.73
2018-02-12T09:45:47.827Z,22.77
2018-02-12T09:47:01.036Z,22.79
2018-02-12T09:48:14.276Z,22.82
2018-02-12T09:49:27.488Z,22.94
2018-02-12T09:50:40.706Z,22.86
2018-02-12T09:51:53.896Z,22.9
2018-02-12T09:53:07.162Z,22.91
2018-02-12T09:54:20.389Z,22.76
2018-02-12T09:55:33.500Z,22.86
2018-02-12T09:56:46.410Z,22.92
2018-02-12T09:57:59.566Z,22.9
2018-02-12T09:59:12.763Z,22.92
2018-02-12T10:00:25.954Z,22.86
2018-02-12T10:01:38.948Z,22.85
2018-02-12T10:02:52.085Z,22.8
2018-02-12T10:04:05.292Z,22.95
2018-02-12T10:05:18.324Z,22.97
2018-02-12T10:06:31.596Z,22.94
2018-02-12T10:07:44.769Z,22.98
2018-02-12T10:08:57.878Z,22.94
2018-02-12T10:10:11.086Z,22.85
2018-02-12T10:11:24.241Z,22.9
2018-02-12T10:12:37.456Z,22.95
2018-02-12T10:13:50.634Z,22.94
2018-02-12T10:15:03.814Z,22.97
2018-02-12T10:16:16.971Z,23.01
2018-02-12T10:17:30.121Z,23.07
2018-02-12T10:18:43.326Z,23.12
2018-02-12T10:19:56.542Z,23.1
2018-02-12T10:21:09.617Z,23.12
2018-02-12T10:22:22.801Z,23.23
2018-02-12T10:23:35.975Z,23.16
2018-02-12T10:24:49.170Z,23.32
2018-02-12T10:26:02.348Z,23.32
2018-02-12T10:27:15.530Z,23.31
2018-02-12T10:28:28.746Z,23.35
2018-02-12T10:29:41.844Z,23.39
2018-02-12T10:30:54.999Z,23.39
2018-02-12T10:32:08.227Z,23.46
2018-02-12T10:33:20.919Z,23.53
2018-02-12T10:34:34.128Z,23.57
2018-02-12T10:35:46.829Z,23.63
2018-02-12T10:36:59.853Z,23.68
2018-02-12T10:38:13.048Z,23.63
2018-02-12T10:39:26.276Z,23.68
2018-02-12T10:40:39.382Z,23.72
2018-02-12T10:41:52.591Z,23.76
2018-02-12T10:43:05.827Z,23.76
2018-02-12T10:44:19.017Z,23.78
2018-02-12T10:45:32.227Z,23.87
2018-02-12T10:46:45.165Z,23.79
2018-02-12T10:47:58.304Z,23.8
2018-02-12T10:49:11.565Z,23.87
2018-02-12T10:50:24.753Z,23.83
2018-02-12T10:51:37.863Z,23.76
2018-02-12T10:52:51.091Z,23.91
2018-02-12T10:54:04.367Z,23.9
2018-02-12T10:55:17.560Z,23.88
2018-02-12T10:56:30.878Z,23.91
2018-02-12T10:57:44.116Z,24
2018-02-12T10:58:57.087Z,24.02
2018-02-12T11:00:10.326Z,24.03
2018-02-12T11:01:23.509Z,24.06
2018-02-12T11:02:36.716Z,24.09
2018-02-12T11:03:49.943Z,24.02
2018-02-12T11:05:03.118Z,24.09
2018-02-12T11:06:16.344Z,24.18
2018-02-12T11:07:29.573Z,24.2
2018-02-12T11:08:42.752Z,24.24
2018-02-12T11:09:55.920Z,24.3
2018-02-12T11:11:09.171Z,24.22
2018-02-12T11:12:22.421Z,24.21
2018-02-12T11:13:35.656Z,24.31
2018-02-12T11:14:48.809Z,24.35
2018-02-12T11:16:02.001Z,24.4
2018-02-12T11:17:15.178Z,24.4
2018-02-12T11:18:28.312Z,24.42
2018-02-12T11:19:41.567Z,24.49
2018-02-12T11:20:54.800Z,24.53
2018-02-12T11:22:07.958Z,24.57
2018-02-12T11:23:21.104Z,24.57
2018-02-12T11:24:34.134Z,24.58
2018-02-12T11:25:47.075Z,24.53
2018-02-12T11:27:00.290Z,24.6
2018-02-12T11:28:13.476Z,24.57
2018-02-12T11:29:26.635Z,24.64
2018-02-12T11:30:39.313Z,24.6
2018-02-12T11:31:52.481Z,24.61
2018-02-12T11:33:05.683Z,24.61
2018-02-12T11:34:18.372Z,24.65
2018-02-12T11:35:31.537Z,24.6
2018-02-12T11:36:44.487Z,24.65
2018-02-12T11:37:57.445Z,24.55
2018-02-12T11:39:10.649Z,24.64
2018-02-12T11:40:23.924Z,24.73
2018-02-12T11:41:37.176Z,24.78
2018-02-12T11:42:50.355Z,24.58
2018-02-12T11:44:03.527Z,24.78
2018-02-12T11:45:16.638Z,24.76
2018-02-12T11:46:29.874Z,24.73
2018-02-12T11:47:43.039Z,24.8
2018-02-12T11:48:56.259Z,24.71
2018-02-12T11:50:09.366Z,24.76
2018-02-12T11:51:53.697Z,24.69
2018-02-12T11:53:06.916Z,24.83
2018-02-12T11:54:20.099Z,24.87
2018-02-12T11:55:33.273Z,24.95
2018-02-12T11:56:46.515Z,24.93
2018-02-12T11:57:59.892Z,25.06
2018-02-12T11:59:12.796Z,25.1
2018-02-12T12:00:26.002Z,25.17
2018-02-12T12:01:39.228Z,25.18
2018-02-12T12:02:52.484Z,25.17
2018-02-12T12:04:05.739Z,25.14
2018-02-12T12:05:18.949Z,25.17
2018-02-12T12:06:32.202Z,25.15
2018-02-12T12:07:45.360Z,25.21
2018-02-12T12:08:58.526Z,25.18
2018-02-12T12:10:11.742Z,25.14
2018-02-12T12:11:24.938Z,25.24
2018-02-12T12:12:38.093Z,25.24
2018-02-12T12:13:51.220Z,25.3
2018-02-12T12:15:03.944Z,25.38
2018-02-12T12:16:17.104Z,25.35
2018-02-12T12:17:30.328Z,25.4
2018-02-12T12:18:43.547Z,25.45
2018-02-12T12:19:56.306Z,25.51
2018-02-12T12:21:09.527Z,25.47
2018-02-12T12:22:22.705Z,25.6
2018-02-12T12:23:35.697Z,25.62
2018-02-12T12:24:48.839Z,25.65
2018-02-12T12:26:02.024Z,25.67
2018-02-12T12:27:15.250Z,25.77
2018-02-12T12:28:28.426Z,25.77
2018-02-12T12:29:41.621Z,25.9
2018-02-12T12:30:54.810Z,25.9
2018-02-12T12:32:08.048Z,25.9
2018-02-12T12:33:21.266Z,26.02
2018-02-12T12:34:34.460Z,26.1
2018-02-12T12:35:47.663Z,26.05
2018-02-12T12:37:00.843Z,26.13
2018-02-12T12:38:13.969Z,26.2
2018-02-12T12:39:27.143Z,26.29
2018-02-12T12:40:40.418Z,26.45
2018-02-12T12:41:53.604Z,26.57
2018-02-12T12:43:06.772Z,26.7
2018-02-12T12:44:20.011Z,26.84
2018-02-12T12:45:33.198Z,26.85
2018-02-12T12:46:46.422Z,26.99
2018-02-12T12:47:59.599Z,27.07
2018-02-12T12:49:12.697Z,27.21
2018-02-12T12:50:25.621Z,27.37
2018-02-12T12:51:38.722Z,27.49
2018-02-12T12:52:51.936Z,27.62
2018-02-12T12:54:05.051Z,27.7
2018-02-12T12:55:18.285Z,27.78
2018-02-12T12:56:31.480Z,27.79
2018-02-12T12:57:44.646Z,27.97
2018-02-12T12:58:57.845Z,28.04
2018-02-12T13:00:11.052Z,28.11
2018-02-12T13:01:24.185Z,28.27
2018-02-12T13:02:37.364Z,28.41
2018-02-12T13:03:50.360Z,28.59
2018-02-12T13:05:03.636Z,28.64
2018-02-12T13:06:16.846Z,28.8
2018-02-12T13:07:30.068Z,28.96
2018-02-12T13:08:43.261Z,28.9
2018-02-12T13:09:56.268Z,29
2018-02-12T13:11:09.460Z,29.04
2018-02-12T13:12:22.701Z,28.95
2018-02-12T13:13:35.892Z,29.11
2018-02-12T13:14:49.120Z,29.05
2018-02-12T13:16:02.335Z,29.19
2018-02-12T13:17:15.571Z,29.36
2018-02-12T13:18:28.760Z,29.37
2018-02-12T13:19:41.972Z,29.34
2018-02-12T13:20:55.201Z,29.41
2018-02-12T13:22:08.425Z,29.42
2018-02-12T13:23:21.648Z,29.48
2018-02-12T13:24:34.821Z,29.41
2018-02-12T13:25:48.023Z,29.37
2018-02-12T13:27:01.286Z,29.41
2018-02-12T13:28:14.479Z,29.43
2018-02-12T13:29:27.648Z,29.49
2018-02-12T13:30:40.900Z,29.68
2018-02-12T13:31:54.055Z,29.78
2018-02-12T13:33:07.251Z,29.92
2018-02-12T13:34:20.487Z,30.05
2018-02-12T13:35:33.528Z,30.1
2018-02-12T13:36:46.718Z,30.08
2018-02-12T13:37:59.952Z,30.15
2018-02-12T13:39:13.157Z,30.01
2018-02-12T13:40:26.141Z,30.15
2018-02-12T13:41:39.338Z,30.31
2018-02-12T13:42:52.551Z,30.35
2018-02-12T13:44:05.790Z,30.43
2018-02-12T13:45:19.081Z,30.1
2018-02-12T13:46:32.289Z,29.89
2018-02-12T13:47:45.483Z,29.86
2018-02-12T13:48:58.634Z,29.98
2018-02-12T13:50:11.792Z,30.11
2018-02-12T13:51:24.764Z,30.02
2018-02-12T13:52:37.973Z,30.23
2018-02-12T13:53:51.165Z,30.11
2018-02-12T13:55:04.366Z,30.05
2018-02-12T13:56:18.174Z,29.86
2018-02-12T13:57:31.428Z,29.78
2018-02-12T13:58:44.922Z,29.71
2018-02-12T13:59:58.139Z,29.6
2018-02-12T14:01:10.880Z,29.68
2018-02-12T14:02:24.406Z,29.78
2018-02-12T14:03:37.546Z,29.89
2018-02-12T14:04:50.772Z,30
2018-02-12T14:06:03.932Z,30.2
2018-02-12T14:07:17.004Z,29.97
2018-02-12T14:08:30.240Z,29.87
2018-02-12T14:09:43.458Z,30.07
2018-02-12T14:10:56.091Z,29.98
2018-02-12T14:12:09.296Z,30.17
2018-02-12T14:13:22.019Z,30.17
2018-02-12T14:14:35.156Z,30.37
2018-02-12T14:15:48.295Z,30.38
2018-02-12T14:17:01.501Z,30.32
2018-02-12T14:18:14.257Z,30.39
2018-02-12T14:19:27.177Z,30.43
2018-02-12T14:20:39.947Z,30.49
2018-02-12T14:21:53.202Z,30.67
2018-02-12T14:23:06.442Z,30.99
2018-02-12T14:24:19.630Z,31.16
2018-02-12T14:25:32.903Z,31.28
2018-02-12T14:26:46.184Z,31.34
2018-02-12T14:27:59.202Z,31.29
2018-02-12T14:29:12.372Z,31.39
2018-02-12T14:30:25.559Z,31.66
2018-02-12T14:31:38.843Z,31.93
2018-02-12T14:32:52.060Z,31.95
2018-02-12T14:34:05.289Z,32.21
2018-02-12T14:35:17.975Z,32.47
2018-02-12T14:36:31.247Z,32.55
2018-02-12T14:37:44.433Z,32.55
2018-02-12T14:38:57.653Z,32.82
2018-02-12T14:40:10.867Z,32.93
2018-02-12T14:41:24.097Z,33.03
2018-02-12T14:42:37.396Z,33.45
2018-02-12T14:43:50.580Z,33.75
2018-02-12T14:45:03.258Z,34.12
2018-02-12T14:46:16.044Z,34.22
2018-02-12T14:47:29.265Z,34.4
2018-02-12T14:48:42.450Z,34.44
2018-02-12T14:49:55.601Z,33.94
2018-02-12T14:51:08.865Z,33.23
2018-02-12T14:52:22.054Z,33.01
2018-02-12T14:53:35.206Z,32.59
2018-02-12T14:54:48.421Z,32.48
2018-02-12T14:56:01.604Z,32.51
2018-02-12T14:57:14.839Z,32.13
2018-02-12T14:58:28.012Z,32.22
2018-02-12T14:59:41.294Z,32.57
2018-02-12T15:00:54.504Z,33.09
2018-02-12T15:02:07.864Z,33.35
2018-02-12T15:03:21.008Z,33.47
2018-02-12T15:04:34.225Z,33.82
2018-02-12T15:05:46.957Z,33.65
2018-02-12T15:07:00.215Z,33.76
2018-02-12T15:08:13.467Z,34.06
2018-02-12T15:09:26.660Z,34.58
2018-02-12T15:10:39.837Z,34.82
2018-02-12T15:11:53.041Z,34.46
2018-02-12T15:13:06.281Z,34.05
2018-02-12T15:14:19.512Z,33.79
2018-02-12T15:15:32.706Z,34.09
2018-02-12T15:16:45.881Z,34.62
2018-02-12T15:17:59.129Z,34.19
2018-02-12T15:19:12.352Z,34.22
2018-02-12T15:20:25.250Z,34.39
2018-02-12T15:21:38.427Z,34.05
2018-02-12T15:22:51.577Z,33.98
2018-02-12T15:24:04.819Z,33.91
2018-02-12T15:25:18.012Z,33.6
2018-02-12T15:26:31.218Z,33.71
2018-02-12T15:27:44.445Z,34.52
2018-02-12T15:28:57.388Z,34.39
2018-02-12T15:30:09.898Z,33.54
2018-02-12T15:31:23.072Z,33.59
2018-02-12T15:32:36.301Z,33.86
2018-02-12T15:33:49.484Z,33.68
2018-02-12T15:35:02.622Z,33.44
2018-02-12T15:36:15.793Z,33.61
2018-02-12T15:37:28.985Z,33.56
2018-02-12T15:38:42.175Z,33.59
2018-02-12T15:39:55.371Z,33.79
2018-02-12T15:41:08.614Z,33.59
2018-02-12T15:42:21.851Z,33.47
2018-02-12T15:43:34.822Z,33.44
2018-02-12T15:44:48.140Z,33.61
2018-02-12T15:46:01.350Z,33.38
2018-02-12T15:47:14.590Z,33.22